sensor_id;sensor_type;location;lat;lon;timestamp;P1;durP1;ratioP1;P2;durP2;ratioP2
10142;SDS011;5112;54.088;13.446;2022-09-30T00:02:38;9.13;;;7.60;;
10142;SDS011;5112;54.088;13.446;2022-09-30T00:12:41;9.10;;;8.20;;
10142;SDS011;5112;54.088;13.446;2022-09-30T00:22:43;8.50;;;7.20;;
10142;SDS011;5112;54.088;13.446;2022-09-30T00:32:46;8.40;;;7.60;;
10142;SDS011;5112;54.088;13.446;2022-09-30T00:42:48;8.63;;;7.83;;
10142;SDS011;5112;54.088;13.446;2022-09-30T00:52:52;10.60;;;9.50;;
10142;SDS011;5112;54.088;13.446;2022-09-30T01:02:59;10.67;;;9.57;;
10142;SDS011;5112;54.088;13.446;2022-09-30T01:13:03;12.00;;;9.77;;
10142;SDS011;5112;54.088;13.446;2022-09-30T01:23:13;12.57;;;9.97;;
10142;SDS011;5112;54.088;13.446;2022-09-30T01:33:36;11.20;;;9.47;;
10142;SDS011;5112;54.088;13.446;2022-09-30T01:43:45;12.43;;;9.90;;
10142;SDS011;5112;54.088;13.446;2022-09-30T01:53:55;11.17;;;9.20;;
10142;SDS011;5112;54.088;13.446;2022-09-30T02:04:00;11.70;;;9.83;;
10142;SDS011;5112;54.088;13.446;2022-09-30T02:14:09;10.73;;;9.63;;
10142;SDS011;5112;54.088;13.446;2022-09-30T02:24:15;10.27;;;9.27;;
10142;SDS011;5112;54.088;13.446;2022-09-30T02:34:22;10.50;;;9.40;;
10142;SDS011;5112;54.088;13.446;2022-09-30T02:44:27;11.60;;;9.57;;
10142;SDS011;5112;54.088;13.446;2022-09-30T02:54:33;19.43;;;10.50;;
10142;SDS011;5112;54.088;13.446;2022-09-30T03:04:42;11.97;;;10.77;;
10142;SDS011;5112;54.088;13.446;2022-09-30T03:14:51;11.60;;;10.20;;
10142;SDS011;5112;54.088;13.446;2022-09-30T03:25:13;11.60;;;10.40;;
10142;SDS011;5112;54.088;13.446;2022-09-30T03:35:26;11.93;;;10.27;;
10142;SDS011;5112;54.088;13.446;2022-09-30T03:45:34;12.57;;;10.67;;
10142;SDS011;5112;54.088;13.446;2022-09-30T03:55:44;12.50;;;11.17;;
10142;SDS011;5112;54.088;13.446;2022-09-30T04:05:47;12.33;;;10.60;;
10142;SDS011;5112;54.088;13.446;2022-09-30T04:15:53;11.53;;;10.33;;
10142;SDS011;5112;54.088;13.446;2022-09-30T04:25:55;11.27;;;9.97;;
10142;SDS011;5112;54.088;13.446;2022-09-30T04:35:58;11.40;;;10.20;;
10142;SDS011;5112;54.088;13.446;2022-09-30T04:46:00;11.20;;;10.00;;
10142;SDS011;5112;54.088;13.446;2022-09-30T04:56:04;10.37;;;9.37;;
10142;SDS011;5112;54.088;13.446;2022-09-30T05:06:06;11.07;;;10.00;;
10142;SDS011;5112;54.088;13.446;2022-09-30T05:16:10;11.27;;;9.40;;
10142;SDS011;5112;54.088;13.446;2022-09-30T05:26:12;11.30;;;10.10;;
10142;SDS011;5112;54.088;13.446;2022-09-30T05:36:15;10.07;;;9.00;;
10142;SDS011;5112;54.088;13.446;2022-09-30T05:46:18;10.27;;;9.30;;
10142;SDS011;5112;54.088;13.446;2022-09-30T05:56:21;10.13;;;9.13;;
10142;SDS011;5112;54.088;13.446;2022-09-30T06:06:23;10.70;;;9.33;;
10142;SDS011;5112;54.088;13.446;2022-09-30T06:16:26;10.37;;;9.33;;
10142;SDS011;5112;54.088;13.446;2022-09-30T06:26:27;9.50;;;8.07;;
10142;SDS011;5112;54.088;13.446;2022-09-30T06:36:30;9.30;;;8.43;;
10142;SDS011;5112;54.088;13.446;2022-09-30T06:46:33;9.03;;;7.97;;
10142;SDS011;5112;54.088;13.446;2022-09-30T06:56:36;7.57;;;6.97;;
10142;SDS011;5112;54.088;13.446;2022-09-30T07:06:38;7.57;;;6.87;;
10142;SDS011;5112;54.088;13.446;2022-09-30T07:16:42;6.80;;;6.20;;
10142;SDS011;5112;54.088;13.446;2022-09-30T07:26:44;7.80;;;7.10;;
10142;SDS011;5112;54.088;13.446;2022-09-30T07:36:47;7.67;;;6.50;;
10142;SDS011;5112;54.088;13.446;2022-09-30T07:46:48;9.70;;;6.97;;
10142;SDS011;5112;54.088;13.446;2022-09-30T07:56:52;7.43;;;6.60;;
10142;SDS011;5112;54.088;13.446;2022-09-30T08:06:54;7.87;;;7.07;;
10142;SDS011;5112;54.088;13.446;2022-09-30T08:16:59;7.90;;;7.10;;
10142;SDS011;5112;54.088;13.446;2022-09-30T08:27:01;7.80;;;7.10;;
10142;SDS011;5112;54.088;13.446;2022-09-30T08:37:04;8.00;;;7.07;;
10142;SDS011;5112;54.088;13.446;2022-09-30T08:47:08;7.83;;;7.00;;
10142;SDS011;5112;54.088;13.446;2022-09-30T08:57:21;8.70;;;6.77;;
10142;SDS011;5112;54.088;13.446;2022-09-30T09:07:28;8.87;;;7.97;;
10142;SDS011;5112;54.088;13.446;2022-09-30T09:17:44;6.67;;;6.10;;
10142;SDS011;5112;54.088;13.446;2022-09-30T09:27:57;6.73;;;5.87;;
10142;SDS011;5112;54.088;13.446;2022-09-30T09:38:03;6.43;;;5.83;;
10142;SDS011;5112;54.088;13.446;2022-09-30T09:48:25;6.23;;;5.73;;
10142;SDS011;5112;54.088;13.446;2022-09-30T09:58:29;7.17;;;6.17;;
10142;SDS011;5112;54.088;13.446;2022-09-30T10:08:34;7.27;;;6.57;;
10142;SDS011;5112;54.088;13.446;2022-09-30T10:18:39;7.37;;;6.67;;
10142;SDS011;5112;54.088;13.446;2022-09-30T10:28:43;6.23;;;5.63;;
10142;SDS011;5112;54.088;13.446;2022-09-30T10:38:50;6.10;;;5.60;;
10142;SDS011;5112;54.088;13.446;2022-09-30T10:48:58;8.60;;;6.20;;
10142;SDS011;5112;54.088;13.446;2022-09-30T10:59:01;5.23;;;4.73;;
10142;SDS011;5112;54.088;13.446;2022-09-30T11:09:07;5.00;;;4.60;;
10142;SDS011;5112;54.088;13.446;2022-09-30T11:19:17;6.50;;;4.50;;
10142;SDS011;5112;54.088;13.446;2022-09-30T11:29:32;5.20;;;4.10;;
10142;SDS011;5112;54.088;13.446;2022-09-30T11:39:54;3.97;;;3.67;;
10142;SDS011;5112;54.088;13.446;2022-09-30T11:50:20;4.87;;;4.47;;
10142;SDS011;5112;54.088;13.446;2022-09-30T12:00:34;4.87;;;4.47;;
10142;SDS011;5112;54.088;13.446;2022-09-30T12:10:41;5.17;;;4.73;;
10142;SDS011;5112;54.088;13.446;2022-09-30T12:20:48;5.00;;;4.50;;
10142;SDS011;5112;54.088;13.446;2022-09-30T12:30:56;6.27;;;5.77;;
10142;SDS011;5112;54.088;13.446;2022-09-30T12:41:16;6.17;;;5.60;;
10142;SDS011;5112;54.088;13.446;2022-09-30T12:51:26;6.23;;;5.70;;
10142;SDS011;5112;54.088;13.446;2022-09-30T13:01:33;6.37;;;5.53;;
10142;SDS011;5112;54.088;13.446;2022-09-30T13:11:38;6.33;;;5.37;;
10142;SDS011;5112;54.088;13.446;2022-09-30T13:21:42;5.20;;;4.77;;
10142;SDS011;5112;54.088;13.446;2022-09-30T13:32:01;5.30;;;4.80;;
10142;SDS011;5112;54.088;13.446;2022-09-30T13:42:07;4.50;;;4.10;;
10142;SDS011;5112;54.088;13.446;2022-09-30T13:52:17;4.87;;;4.03;;
10142;SDS011;5112;54.088;13.446;2022-09-30T14:02:35;4.70;;;4.30;;
10142;SDS011;5112;54.088;13.446;2022-09-30T14:12:48;4.10;;;3.40;;
10142;SDS011;5112;54.088;13.446;2022-09-30T14:23:03;2.97;;;2.77;;
10142;SDS011;5112;54.088;13.446;2022-09-30T14:33:15;3.93;;;3.43;;
10142;SDS011;5112;54.088;13.446;2022-09-30T14:43:25;3.13;;;2.70;;
10142;SDS011;5112;54.088;13.446;2022-09-30T14:53:33;2.43;;;2.23;;
10142;SDS011;5112;54.088;13.446;2022-09-30T15:03:38;2.63;;;2.43;;
10142;SDS011;5112;54.088;13.446;2022-09-30T15:13:44;3.23;;;2.90;;
10142;SDS011;5112;54.088;13.446;2022-09-30T15:23:48;2.77;;;2.27;;
10142;SDS011;5112;54.088;13.446;2022-09-30T15:34:02;2.93;;;2.73;;
10142;SDS011;5112;54.088;13.446;2022-09-30T15:44:08;3.00;;;2.70;;
10142;SDS011;5112;54.088;13.446;2022-09-30T15:54:29;2.77;;;2.57;;
10142;SDS011;5112;54.088;13.446;2022-09-30T16:04:38;3.27;;;2.80;;
10142;SDS011;5112;54.088;13.446;2022-09-30T16:14:40;2.93;;;2.73;;
10142;SDS011;5112;54.088;13.446;2022-09-30T16:24:58;3.13;;;2.80;;
10142;SDS011;5112;54.088;13.446;2022-09-30T16:35:03;3.13;;;2.93;;
10142;SDS011;5112;54.088;13.446;2022-09-30T16:45:09;3.70;;;2.67;;
10142;SDS011;5112;54.088;13.446;2022-09-30T16:55:12;3.63;;;3.00;;
10142;SDS011;5112;54.088;13.446;2022-09-30T17:05:16;3.20;;;2.93;;
10142;SDS011;5112;54.088;13.446;2022-09-30T17:15:19;8.57;;;3.43;;
10142;SDS011;5112;54.088;13.446;2022-09-30T17:25:22;3.87;;;3.57;;
10142;SDS011;5112;54.088;13.446;2022-09-30T17:35:24;3.50;;;3.30;;
10142;SDS011;5112;54.088;13.446;2022-09-30T17:45:27;4.43;;;4.13;;
10142;SDS011;5112;54.088;13.446;2022-09-30T17:55:29;10.13;;;8.07;;
10142;SDS011;5112;54.088;13.446;2022-09-30T18:05:34;4.67;;;3.90;;
10142;SDS011;5112;54.088;13.446;2022-09-30T18:15:36;3.43;;;3.23;;
10142;SDS011;5112;54.088;13.446;2022-09-30T18:25:40;3.77;;;3.47;;
10142;SDS011;5112;54.088;13.446;2022-09-30T18:35:42;3.43;;;3.23;;
10142;SDS011;5112;54.088;13.446;2022-09-30T18:45:52;4.20;;;3.80;;
10142;SDS011;5112;54.088;13.446;2022-09-30T18:55:58;4.33;;;3.73;;
10142;SDS011;5112;54.088;13.446;2022-09-30T19:06:06;4.27;;;3.97;;
10142;SDS011;5112;54.088;13.446;2022-09-30T19:16:08;4.47;;;4.17;;
10142;SDS011;5112;54.088;13.446;2022-09-30T19:26:12;6.83;;;4.70;;
10142;SDS011;5112;54.088;13.446;2022-09-30T19:36:15;4.63;;;4.27;;
10142;SDS011;5112;54.088;13.446;2022-09-30T19:46:18;5.00;;;4.60;;
10142;SDS011;5112;54.088;13.446;2022-09-30T19:56:21;4.63;;;4.20;;
10142;SDS011;5112;54.088;13.446;2022-09-30T20:06:25;5.33;;;4.93;;
10142;SDS011;5112;54.088;13.446;2022-09-30T20:16:27;6.10;;;5.50;;
10142;SDS011;5112;54.088;13.446;2022-09-30T20:26:30;6.43;;;5.83;;
10142;SDS011;5112;54.088;13.446;2022-09-30T20:36:33;6.40;;;5.80;;
10142;SDS011;5112;54.088;13.446;2022-09-30T20:46:36;6.30;;;5.70;;
10142;SDS011;5112;54.088;13.446;2022-09-30T20:56:39;5.70;;;5.20;;
10142;SDS011;5112;54.088;13.446;2022-09-30T21:06:42;5.77;;;5.27;;
10142;SDS011;5112;54.088;13.446;2022-09-30T21:16:43;6.23;;;5.60;;
10142;SDS011;5112;54.088;13.446;2022-09-30T21:26:46;6.53;;;5.90;;
10142;SDS011;5112;54.088;13.446;2022-09-30T21:36:48;6.20;;;5.70;;
10142;SDS011;5112;54.088;13.446;2022-09-30T21:46:51;5.87;;;5.30;;
10142;SDS011;5112;54.088;13.446;2022-09-30T21:56:56;6.80;;;5.80;;
10142;SDS011;5112;54.088;13.446;2022-09-30T22:06:59;6.37;;;5.77;;
10142;SDS011;5112;54.088;13.446;2022-09-30T22:17:01;6.67;;;6.07;;
10142;SDS011;5112;54.088;13.446;2022-09-30T22:27:09;7.37;;;5.50;;
10142;SDS011;5112;54.088;13.446;2022-09-30T22:37:12;5.43;;;4.97;;
10142;SDS011;5112;54.088;13.446;2022-09-30T22:47:32;5.33;;;4.93;;
10142;SDS011;5112;54.088;13.446;2022-09-30T22:57:35;5.47;;;4.97;;
10142;SDS011;5112;54.088;13.446;2022-09-30T23:07:38;5.97;;;5.40;;
10142;SDS011;5112;54.088;13.446;2022-09-30T23:17:40;5.77;;;5.27;;
10142;SDS011;5112;54.088;13.446;2022-09-30T23:27:47;5.57;;;5.10;;
10142;SDS011;5112;54.088;13.446;2022-09-30T23:37:49;6.47;;;5.87;;
10142;SDS011;5112;54.088;13.446;2022-09-30T23:47:53;6.40;;;5.90;;
10142;SDS011;5112;54.088;13.446;2022-09-30T23:57:55;5.87;;;5.30;;
